Time;durP1;ratioP1;P1;durP2;ratioP2;P2;SDS_P1;SDS_P2;PMS_P1;PMS_P2;Temp;Humidity;BMP_temperature;BMP_pressure;BME280_temperature;BME280_humidity;BME280_pressure;Samples;Min_cycle;Max_cycle;Signal;HPM_P1;HPM_P2
2022/01/19 00:01:14;;;;;;;20.75;6.20;;;;;;;4.71;100.00;102444.00;5214782;28;20033;-78
2022/01/19 00:03:45;;;;;;;13.02;5.38;;;;;;;4.61;100.00;102442.97;5215343;28;20031;-78
2022/01/19 00:06:15;;;;;;;14.13;5.50;;;;;;;4.60;100.00;102440.38;5216172;28;20029;-79
2022/01/19 00:08:45;;;;;;;18.92;5.93;;;;;;;4.45;100.00;102440.09;5216732;28;20029;-78
2022/01/19 00:11:16;;;;;;;15.52;5.93;;;;;;;4.38;100.00;102433.91;5216869;28;20419;-77
2022/01/19 00:13:47;;;;;;;17.00;5.75;;;;;;;4.27;100.00;102430.25;5216688;28;20028;-77
2022/01/19 00:16:18;;;;;;;14.27;5.60;;;;;;;4.19;100.00;102426.66;5219195;28;20022;-77
2022/01/19 00:18:48;;;;;;;18.60;6.30;;;;;;;4.17;100.00;102419.69;5212612;28;20034;-77
2022/01/19 00:21:18;;;;;;;17.25;5.80;;;;;;;4.09;100.00;102413.50;5200175;28;20056;-78
2022/01/19 00:23:49;;;;;;;11.30;5.80;;;;;;;4.02;100.00;102415.09;5210982;28;20029;-79
2022/01/19 00:26:19;;;;;;;13.38;6.13;;;;;;;4.00;100.00;102402.97;5210868;28;20044;-78
2022/01/19 00:28:49;;;;;;;13.90;5.68;;;;;;;3.96;100.00;102385.63;5211205;28;20044;-77
2022/01/19 00:31:19;;;;;;;13.75;5.97;;;;;;;3.95;100.00;102379.59;5212806;28;20021;-78
2022/01/19 00:33:50;;;;;;;14.35;6.38;;;;;;;3.95;100.00;102369.22;5212121;28;20033;-79
2022/01/19 00:36:20;;;;;;;20.45;7.03;;;;;;;3.92;100.00;102371.78;5212747;28;20475;-78
2022/01/19 00:38:50;;;;;;;15.35;6.43;;;;;;;3.87;100.00;102368.22;5210484;28;20025;-77
2022/01/19 00:41:20;;;;;;;21.25;6.78;;;;;;;3.86;100.00;102369.06;5210386;28;20314;-78
2022/01/19 00:43:51;;;;;;;18.17;7.15;;;;;;;3.94;100.00;102372.66;5208005;28;20506;-78
2022/01/19 00:46:21;;;;;;;24.15;7.47;;;;;;;3.91;100.00;102361.38;5206038;28;20541;-78
2022/01/19 00:48:51;;;;;;;16.60;6.90;;;;;;;3.88;100.00;102364.78;5209236;28;20031;-79
2022/01/19 00:51:21;;;;;;;14.10;6.43;;;;;;;3.83;100.00;102371.59;5209206;28;20055;-78
2022/01/19 00:53:52;;;;;;;19.98;6.35;;;;;;;3.78;100.00;102360.25;5208511;28;20394;-78
2022/01/19 00:56:22;;;;;;;17.70;6.07;;;;;;;3.72;100.00;102370.50;5208106;28;20102;-78
2022/01/19 00:58:52;;;;;;;17.40;6.72;;;;;;;3.72;100.00;102360.16;5208508;28;20033;-79
2022/01/19 01:01:23;;;;;;;15.48;6.50;;;;;;;3.69;100.00;102354.94;5208077;28;20087;-77
2022/01/19 01:03:53;;;;;;;20.45;6.30;;;;;;;3.66;100.00;102354.88;5209287;28;20553;-78
2022/01/19 01:06:23;;;;;;;16.15;5.65;;;;;;;3.54;100.00;102358.88;5207204;28;20108;-78
2022/01/19 01:08:53;;;;;;;14.95;5.55;;;;;;;3.42;100.00;102357.75;5205295;28;20029;-78
2022/01/19 01:11:32;;;;;;;15.15;5.57;;;;;;;3.51;100.00;102356.25;5209215;28;20029;-78
2022/01/19 01:16:37;;;;;;;15.18;5.65;;;;;;;3.26;100.00;102355.69;5208959;28;20034;-77
2022/01/19 01:19:09;;;;;;;15.10;6.05;;;;;;;3.24;100.00;102355.66;5210019;28;20052;-78
2022/01/19 01:21:39;;;;;;;14.32;6.22;;;;;;;3.23;100.00;102361.63;5209537;28;20411;-78
2022/01/19 01:24:10;;;;;;;17.38;5.88;;;;;;;3.25;100.00;102359.09;5199201;28;20025;-78
2022/01/19 01:26:40;;;;;;;12.93;5.95;;;;;;;3.19;100.00;102343.47;5202672;28;20040;-78
2022/01/19 01:29:10;;;;;;;20.95;6.28;;;;;;;3.13;100.00;102339.03;5210443;28;20033;-79
2022/01/19 01:31:41;;;;;;;13.75;5.10;;;;;;;3.07;100.00;102335.44;5209082;28;20036;-78
2022/01/19 01:34:11;;;;;;;16.77;5.65;;;;;;;3.01;100.00;102332.72;5210673;28;20037;-78
2022/01/19 01:36:41;;;;;;;16.77;5.65;;;;;;;2.94;100.00;102323.06;5211142;28;20025;-79
2022/01/19 01:39:11;;;;;;;15.82;6.20;;;;;;;2.90;100.00;102314.41;5208798;28;20052;-77
2022/01/19 01:41:42;;;;;;;15.25;5.80;;;;;;;2.89;100.00;102314.34;5211722;28;20475;-78
2022/01/19 01:44:12;;;;;;;15.48;6.07;;;;;;;2.78;100.00;102292.56;5210685;28;20083;-79
2022/01/19 01:46:49;;;;;;;12.27;5.07;;;;;;;2.64;100.00;102291.38;5212182;28;20044;-77
2022/01/19 01:49:27;;;;;;;17.15;5.45;;;;;;;2.73;100.00;102283.88;5208834;28;20029;-78
2022/01/19 01:54:47;;;;;;;13.32;4.93;;;;;;;2.55;100.00;102267.94;5209805;28;20123;-77
2022/01/19 01:57:17;;;;;;;13.50;5.53;;;;;;;2.53;100.00;102269.63;5209606;28;20026;-78
2022/01/19 01:59:48;;;;;;;16.67;5.95;;;;;;;2.48;100.00;102271.22;5209622;28;20029;-78
2022/01/19 02:02:18;;;;;;;13.02;5.35;;;;;;;2.34;100.00;102268.28;5208649;28;20026;-77
2022/01/19 02:04:49;;;;;;;15.43;5.82;;;;;;;2.26;100.00;102263.78;5210188;28;20088;-77
2022/01/19 02:07:44;;;;;;;15.07;5.68;;;;;;;2.34;100.00;102259.69;5209812;28;20048;-79
2022/01/19 02:10:30;;;;;;;14.68;6.65;;;;;;;2.14;100.00;102237.72;5208778;28;20399;-78
2022/01/19 02:24:20;;;;;;;14.02;5.45;;;;;;;1.99;100.00;102196.94;5214988;28;20036;-78
2022/01/19 02:27:00;;;;;;;22.73;6.47;;;;;;;1.88;100.00;102198.41;5215668;28;20031;-77
2022/01/19 02:40:52;;;;;;;17.88;6.78;;;;;;;1.70;100.00;102154.94;5212597;28;20043;-78
2022/01/19 02:43:24;;;;;;;23.85;7.00;;;;;;;1.71;100.00;102147.25;5212962;28;20021;-78
2022/01/19 02:51:33;;;;;;;19.52;6.70;;;;;;;1.57;100.00;102138.28;5210075;28;20048;-79
2022/01/19 02:54:03;;;;;;;21.00;6.78;;;;;;;1.45;100.00;102134.53;5210788;28;20364;-78
2022/01/19 02:56:37;;;;;;;15.43;6.32;;;;;;;1.53;100.00;102121.03;5211150;28;20030;-79
2022/01/19 02:59:23;;;;;;;17.58;6.90;;;;;;;1.46;100.00;102119.13;5210856;28;20025;-77
2022/01/19 03:10:22;;;;;;;15.30;5.80;;;;;;;1.18;100.00;102090.91;5208100;28;20518;-78
2022/01/19 03:12:52;;;;;;;15.55;6.38;;;;;;;1.19;100.00;102095.22;5212401;28;20324;-78
2022/01/19 03:15:22;;;;;;;16.77;6.13;;;;;;;1.22;100.00;102085.00;5212310;28;20026;-78
2022/01/19 03:17:57;;;;;;;14.88;6.43;;;;;;;1.28;100.00;102081.72;5211310;28;20084;-78
2022/01/19 03:20:28;;;;;;;18.35;6.43;;;;;;;1.21;100.00;102070.41;5211580;28;20120;-78
2022/01/19 03:23:06;;;;;;;22.70;6.80;;;;;;;1.18;100.00;102075.47;5211131;28;20033;-79
2022/01/19 03:25:38;;;;;;;19.83;6.78;;;;;;;1.19;100.00;102066.91;5211090;28;20041;-76
2022/01/19 03:28:09;;;;;;;15.80;5.97;;;;;;;1.17;100.00;102062.56;5212431;28;20051;-77
2022/01/19 03:30:39;;;;;;;19.05;6.53;;;;;;;1.27;100.00;102044.78;5211802;28;20029;-77
2022/01/19 03:33:09;;;;;;;15.93;6.75;;;;;;;1.04;100.00;102040.78;5211285;28;20035;-77
2022/01/19 03:35:40;;;;;;;13.23;5.82;;;;;;;1.01;100.00;102039.81;5210998;28;20055;-78
2022/01/19 03:38:10;;;;;;;20.17;6.07;;;;;;;1.09;100.00;102038.31;5211372;28;20021;-77
2022/01/19 03:40:41;;;;;;;16.27;6.07;;;;;;;1.10;100.00;102035.78;5211879;28;20031;-77
2022/01/19 03:43:11;;;;;;;13.70;5.82;;;;;;;1.08;100.00;102029.72;5211755;28;20372;-77
2022/01/19 03:45:50;;;;;;;15.88;5.70;;;;;;;0.88;100.00;102033.47;5214753;28;20030;-77
2022/01/19 03:48:36;;;;;;;14.43;5.70;;;;;;;0.92;100.00;102025.00;5214975;28;20026;-77
2022/01/19 03:51:06;;;;;;;13.52;6.30;;;;;;;0.96;100.00;102024.28;5211788;28;20021;-77
2022/01/19 03:53:37;;;;;;;16.63;6.53;;;;;;;1.00;100.00;102015.78;5213995;28;20029;-77
2022/01/19 03:56:07;;;;;;;16.13;6.22;;;;;;;0.95;100.00;102024.22;5201613;28;20033;-77
2022/01/19 03:58:38;;;;;;;15.98;5.80;;;;;;;1.03;100.00;102021.03;5212763;28;20040;-79
2022/01/19 04:01:09;;;;;;;12.68;5.50;;;;;;;0.96;100.00;102029.44;5212721;28;20025;-79
2022/01/19 04:06:26;;;;;;;18.25;6.22;;;;;;;0.95;100.00;102030.25;5212718;28;20252;-78
2022/01/19 04:08:56;;;;;;;15.90;5.40;;;;;;;0.92;100.00;102001.84;5209388;28;20493;-77
2022/01/19 04:11:26;;;;;;;11.70;5.53;;;;;;;0.86;100.00;101993.97;5212841;28;20025;-77
2022/01/19 04:16:27;;;;;;;18.30;5.75;;;;;;;0.91;100.00;101991.53;5213872;28;20537;-78
2022/01/19 04:19:09;;;;;;;11.10;5.45;;;;;;;0.86;100.00;101999.13;5212680;28;20029;-79
2022/01/19 04:21:39;;;;;;;13.45;5.90;;;;;;;0.89;100.00;101994.06;5199449;28;20052;-80
2022/01/19 04:24:10;;;;;;;11.50;5.40;;;;;;;0.86;100.00;101988.84;5214572;28;20021;-78
2022/01/19 04:26:40;;;;;;;11.48;5.47;;;;;;;0.82;100.00;101987.03;5213890;28;20480;-78
2022/01/19 04:29:10;;;;;;;17.98;5.97;;;;;;;0.72;100.00;101985.03;5212502;28;20120;-79
2022/01/19 04:31:41;;;;;;;15.40;5.80;;;;;;;0.76;100.00;101983.41;5212449;28;20470;-78
2022/01/19 04:34:14;;;;;;;20.52;5.55;;;;;;;0.82;100.00;101979.31;5213238;28;20239;-76
2022/01/19 04:37:20;;;;;;;14.65;5.65;;;;;;;0.95;100.00;101981.38;5212717;28;20025;-76
2022/01/19 05:07:15;;;;;;;12.80;5.43;;;;;;;0.79;100.00;101925.19;5207381;28;20565;-77
2022/01/19 05:15:11;;;;;;;11.57;5.15;;;;;;;0.55;100.00;101928.84;5208034;28;20033;-78
2022/01/19 05:17:41;;;;;;;17.02;5.43;;;;;;;0.51;100.00;101912.47;5208369;28;20025;-77
2022/01/19 05:20:12;;;;;;;13.20;5.00;;;;;;;0.50;100.00;101913.28;5208969;28;20555;-77
2022/01/19 05:22:43;;;;;;;13.13;4.97;;;;;;;0.31;100.00;101913.63;5208965;28;20033;-79
2022/01/19 05:25:13;;;;;;;14.38;5.15;;;;;;;0.50;100.00;101908.16;5208951;28;20494;-76
2022/01/19 05:27:44;;;;;;;16.40;5.30;;;;;;;0.51;100.00;101897.03;5197370;28;20056;-77
2022/01/19 05:30:17;;;;;;;16.88;5.95;;;;;;;0.58;100.00;101893.78;5211569;28;20029;-78
2022/01/19 05:32:47;;;;;;;12.27;5.63;;;;;;;0.55;100.00;101878.28;5209780;28;20025;-78
2022/01/19 05:35:18;;;;;;;11.10;5.30;;;;;;;0.48;100.00;101870.34;5210190;28;20036;-77
2022/01/19 05:37:48;;;;;;;12.07;5.45;;;;;;;0.44;100.00;101854.00;5210448;28;20025;-76
2022/01/19 05:40:18;;;;;;;14.48;5.28;;;;;;;0.42;100.00;101840.22;5211039;28;20391;-77
2022/01/19 05:42:49;;;;;;;14.90;4.82;;;;;;;0.27;100.00;101834.72;5210767;28;20029;-77
2022/01/19 05:45:20;;;;;;;12.35;4.93;;;;;;;0.12;100.00;101831.75;5212594;28;20026;-77
2022/01/19 05:47:51;;;;;;;11.80;4.85;;;;;;;-0.08;100.00;101831.19;5213210;28;20033;-77
2022/01/19 05:50:21;;;;;;;18.48;5.20;;;;;;;0.09;100.00;101828.22;5213178;28;20021;-78
2022/01/19 05:52:51;;;;;;;16.85;5.63;;;;;;;0.25;100.00;101820.94;5214169;28;20029;-78
2022/01/19 05:55:22;;;;;;;14.18;5.72;;;;;;;0.15;100.00;101815.50;5215992;28;20017;-78
2022/01/19 05:57:52;;;;;;;12.65;5.40;;;;;;;-0.03;100.00;101810.78;5215200;28;20055;-78
2022/01/19 06:00:22;;;;;;;15.35;6.07;;;;;;;0.09;100.00;101807.66;5216462;28;20033;-77
2022/01/19 06:02:53;;;;;;;13.80;6.18;;;;;;;0.17;100.00;101796.75;5215009;28;20077;-78
2022/01/19 06:05:23;;;;;;;13.73;5.25;;;;;;;0.19;100.00;101795.06;5216121;28;20068;-78
2022/01/19 06:08:11;;;;;;;15.40;6.15;;;;;;;0.34;100.00;101785.19;5216120;28;20100;-78
2022/01/19 06:10:44;;;;;;;15.55;6.00;;;;;;;0.37;100.00;101776.69;5215448;28;20067;-78
2022/01/19 06:13:17;;;;;;;16.65;6.38;;;;;;;0.44;100.00;101773.41;5215669;28;20585;-79
2022/01/19 06:15:49;;;;;;;16.48;6.03;;;;;;;0.40;100.00;101767.31;5216708;28;20017;-77
2022/01/19 06:18:20;;;;;;;15.35;6.00;;;;;;;0.44;100.00;101771.72;5217730;28;20396;-78
2022/01/19 06:20:51;;;;;;;18.70;6.10;;;;;;;0.46;100.00;101762.34;5216589;28;20033;-79
2022/01/19 06:23:21;;;;;;;19.80;6.55;;;;;;;0.39;100.00;101744.16;5214141;28;20503;-77
2022/01/19 06:25:53;;;;;;;12.50;6.28;;;;;;;0.45;100.00;101744.31;5210297;28;20030;-78
2022/01/19 06:28:23;;;;;;;15.88;6.72;;;;;;;0.50;100.00;101741.00;5213093;28;20033;-78
2022/01/19 06:30:54;;;;;;;15.60;6.50;;;;;;;0.25;100.00;101730.13;5213239;28;20036;-77
2022/01/19 06:33:24;;;;;;;14.02;5.97;;;;;;;0.23;100.00;101730.06;5215460;28;20472;-77
2022/01/19 06:35:55;;;;;;;12.73;6.70;;;;;;;0.37;100.00;101727.84;5214353;28;20020;-78
2022/01/19 06:38:25;;;;;;;18.45;6.55;;;;;;;0.25;100.00;101718.13;5216717;28;20414;-77
2022/01/19 06:40:56;;;;;;;17.30;6.53;;;;;;;0.25;100.00;101718.13;5215238;28;20314;-77
2022/01/19 06:43:26;;;;;;;16.65;6.43;;;;;;;0.23;100.00;101721.50;5217827;28;20286;-79
2022/01/19 06:45:58;;;;;;;15.70;6.60;;;;;;;0.30;100.00;101710.53;5215792;28;20028;-77
2022/01/19 06:48:28;;;;;;;14.05;6.38;;;;;;;0.34;100.00;101714.91;5212720;28;20033;-79
2022/01/19 06:50:59;;;;;;;14.02;5.93;;;;;;;0.26;100.00;101709.59;5212269;28;20059;-79
2022/01/19 06:53:29;;;;;;;21.10;6.97;;;;;;;0.19;100.00;101727.41;5213161;28;20025;-79
2022/01/19 06:55:59;;;;;;;22.02;8.85;;;;;;;0.46;100.00;101734.06;5213176;28;20379;-79
2022/01/19 06:58:30;;;;;;;15.45;6.97;;;;;;;0.67;100.00;101718.25;5213755;28;20040;-78
2022/01/19 07:01:00;;;;;;;18.60;6.70;;;;;;;0.65;100.00;101686.47;5215260;28;20399;-77
2022/01/19 07:03:32;;;;;;;19.70;7.30;;;;;;;0.79;100.00;101700.50;5215378;28;20046;-77
2022/01/19 07:06:02;;;;;;;19.60;7.88;;;;;;;0.72;100.00;101722.66;5213805;28;20354;-77
2022/01/19 07:08:33;;;;;;;26.38;11.50;;;;;;;0.79;100.00;101709.13;5212983;28;20060;-77
2022/01/19 07:11:04;;;;;;;17.88;7.70;;;;;;;0.99;100.00;101689.81;5210993;28;20029;-77
2022/01/19 07:13:34;;;;;;;17.15;6.55;;;;;;;0.78;100.00;101691.94;5210671;28;20030;-78
2022/01/19 07:16:04;;;;;;;21.95;6.90;;;;;;;0.83;100.00;101698.03;5212176;28;20035;-78
2022/01/19 07:18:34;;;;;;;16.42;7.50;;;;;;;0.70;100.00;101693.47;5210274;28;20076;-78
2022/01/19 07:21:05;;;;;;;16.65;6.88;;;;;;;0.42;100.00;101678.25;5210510;28;20037;-77
2022/01/19 07:23:35;;;;;;;16.38;5.88;;;;;;;0.48;100.00;101675.84;5211212;28;20135;-77
2022/01/19 07:26:06;;;;;;;13.10;6.15;;;;;;;0.42;100.00;101679.97;5210469;28;20091;-78
2022/01/19 07:28:36;;;;;;;14.20;6.10;;;;;;;0.42;100.00;101669.69;5209783;28;20029;-77
2022/01/19 07:31:06;;;;;;;10.13;5.40;;;;;;;0.48;100.00;101670.69;5210410;28;20307;-79
2022/01/19 07:33:37;;;;;;;17.88;5.88;;;;;;;0.47;100.00;101658.66;5209727;28;20120;-78
2022/01/19 07:36:07;;;;;;;13.20;5.50;;;;;;;0.49;100.00;101659.56;5210671;28;20029;-77
2022/01/19 07:38:37;;;;;;;11.07;5.50;;;;;;;0.55;100.00;101661.41;5209015;28;20044;-77
2022/01/19 07:41:09;;;;;;;13.88;5.95;;;;;;;0.47;100.00;101653.53;5209863;28;20068;-78
2022/01/19 07:43:40;;;;;;;14.05;6.40;;;;;;;0.56;100.00;101653.72;5210330;28;20037;-78
2022/01/19 07:46:10;;;;;;;13.10;5.57;;;;;;;0.50;100.00;101648.44;5209920;28;20021;-76
2022/01/19 07:48:40;;;;;;;14.02;6.15;;;;;;;0.70;100.00;101634.31;5210759;28;20032;-77
2022/01/19 07:51:11;;;;;;;10.90;5.45;;;;;;;0.92;100.00;101627.91;5209723;28;20112;-78
2022/01/19 07:53:41;;;;;;;14.45;5.50;;;;;;;1.19;100.00;101615.53;5212057;28;20040;-78
2022/01/19 07:56:11;;;;;;;14.55;5.82;;;;;;;1.39;100.00;101604.78;5211844;28;20033;-77
2022/01/19 07:58:42;;;;;;;11.18;5.43;;;;;;;1.64;100.00;101606.06;5211466;28;20029;-79
2022/01/19 08:01:12;;;;;;;11.20;5.38;;;;;;;1.86;100.00;101601.28;5201208;28;20143;-78
2022/01/19 08:03:43;;;;;;;10.30;5.22;;;;;;;2.53;100.00;101588.50;5210870;28;20108;-78
2022/01/19 08:06:13;;;;;;;15.00;5.80;;;;;;;3.64;100.00;101577.66;5211500;28;20491;-78
2022/01/19 08:08:44;;;;;;;11.57;5.20;;;;;;;4.70;96.43;101567.09;5213468;28;20463;-78
2022/01/19 08:11:14;;;;;;;9.23;4.10;;;;;;;5.53;91.88;101551.75;5194074;28;20124;-78
2022/01/19 08:13:44;;;;;;;10.98;4.05;;;;;;;5.94;89.48;101539.63;5211170;28;20029;-77
2022/01/19 08:16:15;;;;;;;7.88;3.78;;;;;;;6.23;84.27;101532.66;5212291;28;20033;-78
2022/01/19 08:18:46;;;;;;;8.88;3.63;;;;;;;6.20;83.21;101527.50;5211341;28;20033;-79
2022/01/19 08:21:16;;;;;;;7.78;3.60;;;;;;;6.63;82.21;101523.00;5206268;28;20487;-78
2022/01/19 08:23:47;;;;;;;7.63;4.03;;;;;;;7.12;80.41;101517.53;5205544;28;20059;-78
2022/01/19 08:26:17;;;;;;;11.32;4.05;;;;;;;6.90;81.55;101517.69;5207688;28;20367;-78
2022/01/19 08:28:47;;;;;;;8.82;4.03;;;;;;;6.93;83.01;101533.25;5207160;28;20029;-78
2022/01/19 08:31:18;;;;;;;8.80;4.68;;;;;;;7.43;79.08;101537.22;5208502;28;20459;-77
2022/01/19 08:33:48;;;;;;;7.30;4.15;;;;;;;9.26;76.03;101539.53;5208039;28;20025;-78
2022/01/19 08:36:18;;;;;;;7.03;4.32;;;;;;;9.64;72.99;101531.09;5209258;28;20022;-78
2022/01/19 08:38:49;;;;;;;6.50;3.83;;;;;;;9.76;72.27;101529.13;5209687;28;20021;-79
2022/01/19 08:41:19;;;;;;;10.27;4.22;;;;;;;8.49;74.91;101535.34;5209561;28;20064;-78
2022/01/19 08:43:50;;;;;;;6.97;3.95;;;;;;;10.04;72.50;101532.16;5210377;28;20462;-79
2022/01/19 08:46:20;;;;;;;5.95;3.83;;;;;;;9.05;76.14;101533.75;5212170;28;20021;-78
2022/01/19 08:48:50;;;;;;;7.05;3.95;;;;;;;9.13;76.48;101532.75;5213859;28;20025;-78
2022/01/19 08:51:21;;;;;;;5.43;3.70;;;;;;;8.64;76.59;101548.19;5211900;28;20029;-79
2022/01/19 08:53:51;;;;;;;6.30;3.63;;;;;;;8.42;75.68;101542.38;5208603;28;20415;-79
2022/01/19 08:56:21;;;;;;;6.18;3.58;;;;;;;6.87;84.81;101541.94;5208787;28;20100;-79
2022/01/19 08:58:52;;;;;;;8.65;3.83;;;;;;;6.04;91.38;101536.19;5203557;28;20033;-79
2022/01/19 09:03:55;;;;;;;6.88;4.45;;;;;;;6.37;88.80;101537.81;5208523;28;20518;-82
2022/01/19 09:06:25;;;;;;;8.35;4.50;;;;;;;6.00;89.02;101528.41;5206058;28;20083;-79
2022/01/19 09:08:56;;;;;;;7.93;4.93;;;;;;;5.85;92.28;101523.22;5210520;28;20029;-80
2022/01/19 09:11:26;;;;;;;8.10;4.45;;;;;;;5.74;92.23;101528.41;5205782;28;20025;-79
2022/01/19 09:13:57;;;;;;;8.07;4.85;;;;;;;5.22;95.64;101538.78;5202488;28;20025;-80
2022/01/19 09:16:27;;;;;;;8.40;5.28;;;;;;;5.04;98.43;101533.56;5202064;28;20025;-82
2022/01/19 09:18:57;;;;;;;8.77;5.45;;;;;;;5.10;98.71;101536.16;5204568;28;20025;-81
2022/01/19 09:21:28;;;;;;;7.32;5.50;;;;;;;5.04;99.40;101527.50;5208250;28;20061;-80
2022/01/19 09:23:58;;;;;;;9.60;5.30;;;;;;;5.17;100.00;101530.09;5213190;28;20104;-80
2022/01/19 09:26:30;;;;;;;7.93;5.25;;;;;;;4.91;100.00;101536.97;5210803;28;20027;-80
2022/01/19 09:29:00;;;;;;;7.60;5.40;;;;;;;4.83;100.00;101538.66;5205952;28;20024;-80
2022/01/19 09:31:33;;;;;;;7.75;5.25;;;;;;;4.66;100.00;101537.75;5205918;28;20036;-82
2022/01/19 09:34:13;;;;;;;7.82;5.30;;;;;;;4.49;100.00;101536.81;5209467;28;20037;-79
2022/01/19 09:36:44;;;;;;;7.32;4.90;;;;;;;4.59;100.00;101527.34;5211012;28;20049;-80
2022/01/19 09:39:17;;;;;;;7.05;5.00;;;;;;;4.44;100.00;101533.34;5207324;28;20048;-79
2022/01/19 09:41:48;;;;;;;12.05;6.80;;;;;;;4.48;100.00;101522.16;5207145;28;20035;-80
2022/01/19 09:44:21;;;;;;;8.10;5.30;;;;;;;4.43;100.00;101515.25;5208474;28;20016;-80
2022/01/19 09:46:52;;;;;;;8.02;5.25;;;;;;;4.47;100.00;101512.66;5209162;28;20502;-82
2022/01/19 09:49:23;;;;;;;10.45;6.28;;;;;;;4.58;100.00;101500.63;5213485;28;20088;-79
2022/01/19 09:51:55;;;;;;;11.73;6.93;;;;;;;4.89;100.00;101505.03;5211568;28;20675;-81
2022/01/19 09:54:29;;;;;;;8.90;6.03;;;;;;;4.99;100.00;101504.19;5207430;28;20036;-81
2022/01/19 09:56:59;;;;;;;7.32;5.72;;;;;;;5.15;100.00;101510.25;5207391;28;20032;-80
2022/01/19 09:59:30;;;;;;;9.05;5.32;;;;;;;5.10;100.00;101511.97;5208690;28;20029;-80
2022/01/19 10:02:06;;;;;;;8.05;5.72;;;;;;;4.84;100.00;101504.13;5217136;28;20418;-80
2022/01/19 10:04:44;;;;;;;7.00;4.55;;;;;;;5.14;100.00;101504.19;5211469;28;20112;-80
2022/01/19 10:07:22;;;;;;;7.53;5.00;;;;;;;5.13;100.00;101505.06;5213909;28;20021;-80
2022/01/19 10:09:57;;;;;;;4.85;3.78;;;;;;;5.00;100.00;101487.75;5200827;28;20031;-80
2022/01/19 10:18:29;;;;;;;6.18;3.85;;;;;;;5.11;100.00;101474.84;5203421;28;20663;-80
2022/01/19 10:21:03;;;;;;;6.22;4.20;;;;;;;4.88;100.00;101484.31;5209801;28;20026;-80
2022/01/19 10:23:40;;;;;;;5.63;3.70;;;;;;;4.62;100.00;101471.28;5213270;28;20104;-80
2022/01/19 10:26:14;;;;;;;5.60;3.95;;;;;;;4.71;100.00;101466.16;5213855;28;20028;-82
2022/01/19 10:29:16;;;;;;;5.25;4.32;;;;;;;4.59;100.00;101465.25;5213474;28;20032;-80
2022/01/19 10:31:47;;;;;;;6.13;4.28;;;;;;;4.62;100.00;101460.94;5192175;28;20521;-80
2022/01/19 10:34:21;;;;;;;5.80;4.07;;;;;;;4.55;100.00;101453.16;5213266;28;20025;-81
2022/01/19 10:37:03;;;;;;;5.97;4.07;;;;;;;4.74;100.00;101445.44;5213246;28;20033;-80
2022/01/19 10:39:39;;;;;;;6.43;3.80;;;;;;;4.68;100.00;101440.28;5202255;28;20058;-81
2022/01/19 10:42:12;;;;;;;4.95;3.45;;;;;;;4.70;100.00;101437.66;5205696;28;20017;-80
2022/01/19 10:44:46;;;;;;;6.80;4.65;;;;;;;4.78;100.00;101436.81;5209580;28;20041;-81
2022/01/19 10:47:17;;;;;;;6.13;3.83;;;;;;;4.87;100.00;101433.38;5212614;28;20056;-80
2022/01/19 10:50:07;;;;;;;4.88;3.40;;;;;;;4.81;100.00;101420.44;5217332;28;20025;-81
2022/01/19 10:52:43;;;;;;;11.43;6.05;;;;;;;4.95;100.00;101398.84;5217177;28;20043;-83
2022/01/19 10:55:19;;;;;;;7.28;4.18;;;;;;;4.84;100.00;101403.16;5209603;28;20368;-81
2022/01/19 10:57:51;;;;;;;6.72;3.80;;;;;;;4.89;100.00;101383.31;5213235;28;20136;-81
2022/01/19 11:00:23;;;;;;;6.80;3.65;;;;;;;4.88;100.00;101371.25;5216686;28;20027;-80
2022/01/19 11:02:56;;;;;;;7.00;4.25;;;;;;;4.99;100.00;101360.88;5208933;28;20060;-80
2022/01/19 11:06:00;;;;;;;6.10;3.30;;;;;;;5.05;100.00;101359.16;5215814;28;20877;-80
2022/01/19 11:08:32;;;;;;;5.10;3.08;;;;;;;5.04;100.00;101352.25;5192172;28;20402;-80
2022/01/19 11:11:03;;;;;;;5.25;3.00;;;;;;;5.16;100.00;101356.53;5210325;28;20167;-80
2022/01/19 11:13:39;;;;;;;4.28;3.13;;;;;;;5.18;100.00;101345.28;5212096;28;20056;-80
2022/01/19 11:16:11;;;;;;;5.05;3.25;;;;;;;5.10;100.00;101347.03;5208428;28;20442;-80
2022/01/19 11:18:42;;;;;;;4.82;2.97;;;;;;;5.19;98.69;101346.16;5210688;28;20029;-80
2022/01/19 11:21:13;;;;;;;5.15;2.80;;;;;;;5.14;100.00;101343.56;5213914;28;20130;-81
2022/01/19 11:24:03;;;;;;;3.67;2.47;;;;;;;5.28;100.00;101336.66;5213592;28;20685;-80
2022/01/19 11:26:35;;;;;;;4.15;2.65;;;;;;;5.37;99.50;101325.41;5212184;28;20025;-81
2022/01/19 11:29:18;;;;;;;4.03;2.38;;;;;;;5.31;99.27;101320.25;5216606;28;20052;-79
2022/01/19 11:31:51;;;;;;;3.33;2.30;;;;;;;5.48;97.78;101309.81;5211898;28;20108;-80
2022/01/19 11:34:42;;;;;;;3.33;2.35;;;;;;;5.17;99.87;101301.28;5220869;28;20425;-79
2022/01/19 11:37:14;;;;;;;4.85;2.53;;;;;;;5.33;99.46;101314.16;5206703;28;20040;-81
2022/01/19 11:40:05;;;;;;;4.55;2.42;;;;;;;5.32;98.63;101312.44;5209539;28;20029;-80
2022/01/19 11:42:35;;;;;;;3.17;2.08;;;;;;;5.34;97.90;101309.84;5205759;28;20033;-81
2022/01/19 11:45:27;;;;;;;3.03;2.03;;;;;;;5.34;97.48;101310.72;5208957;28;20099;-80
2022/01/19 11:48:16;;;;;;;5.70;2.50;;;;;;;5.19;98.27;101307.31;5208528;28;20076;-81
2022/01/19 11:50:48;;;;;;;5.20;2.45;;;;;;;5.27;98.35;101295.19;5215154;28;20041;-82
2022/01/19 11:53:19;;;;;;;3.88;2.28;;;;;;;5.18;98.56;101280.53;5210948;28;20033;-80
2022/01/19 11:56:09;;;;;;;4.20;2.30;;;;;;;5.15;98.55;101285.72;5218418;28;20892;-80
2022/01/19 11:59:06;;;;;;;5.03;2.50;;;;;;;5.12;97.50;101277.09;5211008;28;20037;-81
2022/01/19 12:01:37;;;;;;;4.40;2.55;;;;;;;4.95;99.13;101263.34;5213105;28;20033;-82
2022/01/19 12:04:25;;;;;;;3.67;2.60;;;;;;;5.04;98.56;101251.22;5211507;28;20087;-80
2022/01/19 12:06:55;;;;;;;5.88;2.67;;;;;;;4.86;98.88;101234.84;5204817;28;20029;-81
2022/01/19 12:09:26;;;;;;;3.67;2.45;;;;;;;4.92;98.51;101227.94;5208746;28;20167;-81
2022/01/19 12:12:12;;;;;;;3.30;2.47;;;;;;;4.94;99.71;101231.38;5203190;28;20037;-80
2022/01/19 12:14:51;;;;;;;4.47;2.75;;;;;;;4.97;98.54;101236.53;5216875;28;20033;-80
2022/01/19 12:17:26;;;;;;;4.20;3.00;;;;;;;5.03;98.60;101231.38;5204951;28;20076;-80
2022/01/19 12:20:01;;;;;;;4.35;2.90;;;;;;;4.88;99.67;101212.41;5211110;28;20049;-80
2022/01/19 12:22:34;;;;;;;5.20;3.05;;;;;;;4.96;99.79;101202.91;5205357;28;20037;-80
2022/01/19 12:25:08;;;;;;;3.58;2.88;;;;;;;4.94;99.96;101200.31;5213094;28;20032;-82
2022/01/19 12:27:46;;;;;;;4.47;3.17;;;;;;;5.04;100.00;101202.00;5208123;28;20034;-81
2022/01/19 12:30:18;;;;;;;4.82;3.00;;;;;;;4.94;100.00;101186.50;5208548;28;20275;-81
2022/01/19 12:32:54;;;;;;;4.25;2.80;;;;;;;5.02;99.96;101177.84;5205274;28;20112;-82
2022/01/19 12:35:31;;;;;;;;;;;;;;;4.98;100.00;101175.28;5202692;28;20121;-82
2022/01/19 12:38:17;;;;;;;4.75;3.00;;;;;;;5.00;100.00;101174.38;5216269;28;20337;-80
2022/01/19 12:40:53;;;;;;;4.15;3.00;;;;;;;5.04;100.00;101170.06;5204836;28;20056;-81
2022/01/19 12:43:37;;;;;;;5.15;3.40;;;;;;;5.00;100.00;101156.25;5185404;28;20113;-81
2022/01/19 12:46:10;;;;;;;6.18;3.67;;;;;;;4.99;99.94;101149.34;5206083;28;20589;-81
2022/01/19 12:48:50;;;;;;;5.22;3.60;;;;;;;4.85;100.00;101142.50;5210612;28;20033;-81
2022/01/19 12:51:40;;;;;;;5.63;3.47;;;;;;;5.02;100.00;101153.66;5216557;28;20033;-81
2022/01/19 12:54:13;;;;;;;6.32;3.95;;;;;;;5.04;100.00;101138.97;5217664;28;20078;-82
2022/01/19 12:56:58;;;;;;;5.72;3.65;;;;;;;5.03;100.00;101127.78;5216813;28;20100;-82
2022/01/19 12:59:31;;;;;;;6.18;3.80;;;;;;;5.05;100.00;101125.16;5213526;28;20017;-81
2022/01/19 13:02:03;;;;;;;6.78;4.03;;;;;;;5.07;100.00;101142.41;5217788;28;20029;-81
2022/01/19 13:04:35;;;;;;;5.38;3.80;;;;;;;4.86;100.00;101145.09;5208829;28;20041;-82
2022/01/19 13:07:25;;;;;;;4.95;3.45;;;;;;;4.95;100.00;101147.63;5210729;28;20112;-82
2022/01/19 13:13:09;;;;;;;5.97;3.88;;;;;;;4.82;99.71;101148.53;5209025;28;20436;-81
2022/01/19 13:15:55;;;;;;;5.88;4.03;;;;;;;4.89;97.99;101147.69;5211517;28;20424;-81
2022/01/19 13:18:34;;;;;;;7.70;3.60;;;;;;;4.76;98.83;101146.00;5205565;28;20507;-82
2022/01/19 13:21:23;;;;;;;7.13;3.85;;;;;;;4.81;98.42;101136.47;5210911;28;20040;-81